Time;durP1;ratioP1;P1;durP2;ratioP2;P2;SDS_P1;SDS_P2;PMS_P1;PMS_P2;Temp;Humidity;BMP_temperature;BMP_pressure;BME280_temperature;BME280_humidity;BME280_pressure;Samples;Min_cycle;Max_cycle;Signal;HPM_P1;HPM_P2
2021/01/29 00:02:14;;;;;;;63.80;23.50;;;0.70;99.90;;;;;;4347274;28;660167;-58
2021/01/29 00:05:01;;;;;;;69.10;26.87;;;0.70;99.90;;;;;;4366675;28;660903;-56
2021/01/29 00:07:48;;;;;;;61.97;22.97;;;0.60;99.90;;;;;;4371349;28;659960;-57
2021/01/29 00:10:35;;;;;;;71.20;25.52;;;0.70;99.90;;;;;;4348017;28;660310;-58
2021/01/29 00:13:24;;;;;;;65.60;25.33;;;0.70;99.90;;;;;;4361010;28;661146;-54
2021/01/29 00:16:10;;;;;;;49.27;16.13;;;0.70;99.90;;;;;;4343469;28;661071;-58
2021/01/29 00:18:57;;;;;;;44.57;15.33;;;0.70;99.90;;;;;;4374732;28;660383;-63
2021/01/29 00:21:44;;;;;;;62.83;23.83;;;0.70;99.90;;;;;;4336318;28;659708;-63
2021/01/29 00:24:31;;;;;;;57.63;19.73;;;0.70;99.90;;;;;;4356904;28;660329;-63
2021/01/29 00:27:18;;;;;;;60.57;24.57;;;0.70;99.90;;;;;;4363612;28;660990;-63
2021/01/29 00:30:07;;;;;;;58.13;21.27;;;0.70;99.90;;;;;;4359987;28;659997;-64
2021/01/29 00:32:55;;;;;;;61.03;22.87;;;0.60;99.90;;;;;;4357479;28;661150;-64
2021/01/29 00:35:42;;;;;;;68.55;23.48;;;0.60;99.90;;;;;;4385013;28;661281;-64
2021/01/29 00:38:29;;;;;;;73.03;25.88;;;0.60;99.90;;;;;;4345171;28;659516;-62
2021/01/29 00:41:16;;;;;;;51.17;21.70;;;0.60;99.90;;;;;;4377956;28;659513;-64
2021/01/29 00:44:04;;;;;;;43.37;15.80;;;0.70;99.90;;;;;;4347815;28;659497;-65
2021/01/29 00:46:52;;;;;;;59.87;22.70;;;0.70;99.90;;;;;;4350980;28;660303;-63
2021/01/29 00:49:39;;;;;;;65.87;24.43;;;0.70;99.90;;;;;;4384151;28;660662;-62
2021/01/29 00:52:26;;;;;;;45.90;17.83;;;0.80;99.90;;;;;;4377377;28;659880;-64
2021/01/29 00:55:14;;;;;;;71.23;23.07;;;0.70;99.90;;;;;;4377919;28;659980;-64
2021/01/29 00:58:01;;;;;;;63.97;23.00;;;0.70;99.90;;;;;;4371247;28;660251;-64
2021/01/29 01:00:49;;;;;;;54.67;19.63;;;0.60;99.90;;;;;;4389247;28;659894;-61
2021/01/29 01:03:37;;;;;;;48.90;18.10;;;0.70;99.90;;;;;;4390368;28;659950;-64
2021/01/29 01:06:24;;;;;;;18.10;7.72;;;0.80;99.90;;;;;;4357421;28;659617;-61
2021/01/29 01:09:11;;;;;;;69.00;21.67;;;0.70;99.90;;;;;;4366889;28;658456;-64
2021/01/29 01:11:58;;;;;;;54.97;16.60;;;0.70;99.90;;;;;;4376779;28;660191;-64
2021/01/29 01:14:45;;;;;;;62.45;17.75;;;0.60;99.90;;;;;;4359081;28;659730;-64
2021/01/29 01:17:32;;;;;;;32.10;12.80;;;0.70;99.90;;;;;;4365384;28;660309;-64
2021/01/29 01:20:22;;;;;;;76.13;21.30;;;0.70;99.90;;;;;;4344080;28;660985;-63
2021/01/29 01:23:09;;;;;;;67.37;20.37;;;0.60;99.90;;;;;;4360550;28;659958;-63
2021/01/29 01:25:56;;;;;;;81.40;21.90;;;0.50;99.90;;;;;;4380741;28;661089;-64
2021/01/29 01:28:43;;;;;;;76.43;24.20;;;0.40;99.90;;;;;;4368618;28;659702;-64
2021/01/29 01:31:30;;;;;;;63.77;17.37;;;0.50;99.90;;;;;;4338497;28;662391;-64
2021/01/29 01:34:17;;;;;;;70.63;21.43;;;0.50;99.90;;;;;;4357538;28;660997;-64
2021/01/29 01:37:05;;;;;;;59.67;19.37;;;0.60;99.90;;;;;;4338536;28;659923;-63
2021/01/29 01:39:52;;;;;;;66.27;22.57;;;0.70;99.90;;;;;;4361941;28;660724;-64
2021/01/29 01:42:39;;;;;;;59.20;20.05;;;0.70;99.90;;;;;;4345303;28;660621;-63
2021/01/29 01:45:56;;;;;;;58.10;19.45;;;0.80;99.90;;;;;;4368040;28;661350;-64
2021/01/29 01:48:56;;;;;;;70.57;21.37;;;0.60;99.90;;;;;;4321040;28;660125;-64
2021/01/29 01:51:44;;;;;;;63.97;19.30;;;0.50;99.90;;;;;;4345434;28;660975;-64
2021/01/29 01:54:35;;;;;;;61.33;19.30;;;0.50;99.90;;;;;;4356828;28;661482;-64
2021/01/29 01:57:23;;;;;;;48.83;16.63;;;0.50;99.90;;;;;;4337372;28;661286;-64
2021/01/29 02:00:12;;;;;;;40.87;13.57;;;0.60;99.90;;;;;;4342409;28;660356;-64
2021/01/29 02:03:01;;;;;;;48.30;18.70;;;0.70;99.90;;;;;;4358241;28;660586;-63
2021/01/29 02:05:48;;;;;;;51.20;18.02;;;0.70;99.90;;;;;;4363521;28;660368;-64
2021/01/29 02:08:36;;;;;;;49.55;18.02;;;0.60;99.90;;;;;;4348946;28;659620;-64
2021/01/29 02:11:24;;;;;;;58.10;17.63;;;0.50;99.90;;;;;;4378726;28;659875;-64
2021/01/29 02:14:11;;;;;;;51.33;18.23;;;0.40;99.90;;;;;;4343091;28;661382;-64
2021/01/29 02:17:00;;;;;;;44.30;15.37;;;0.40;99.90;;;;;;4364606;28;660673;-64
2021/01/29 02:20:09;;;;;;;28.73;11.33;;;0.40;99.90;;;;;;4345493;28;660465;-64
2021/01/29 02:23:39;;;;;;;49.47;16.57;;;0.40;99.90;;;;;;4321254;28;660838;-61
2021/01/29 02:27:06;;;;;;;39.33;13.90;;;0.40;99.90;;;;;;4336692;28;660340;-64
2021/01/29 02:30:16;;;;;;;42.03;15.53;;;0.40;99.90;;;;;;4356008;28;659565;-64
2021/01/29 02:33:42;;;;;;;50.33;17.07;;;0.40;99.90;;;;;;4347192;28;661186;-64
2021/01/29 02:36:58;;;;;;;51.50;16.10;;;0.20;99.90;;;;;;4336270;28;659567;-61
2021/01/29 02:40:04;;;;;;;43.47;15.50;;;0.20;99.90;;;;;;4318832;28;660693;-64
2021/01/29 02:43:21;;;;;;;44.43;15.63;;;0.10;99.90;;;;;;4319553;28;660246;-64
2021/01/29 02:46:11;;;;;;;38.80;13.90;;;0.10;99.90;;;;;;4353618;28;659242;-64
2021/01/29 02:49:02;;;;;;;50.77;17.90;;;0.20;99.90;;;;;;4346497;28;659685;-64
2021/01/29 02:51:52;;;;;;;42.97;17.23;;;0.30;99.90;;;;;;4324100;28;660129;-63
2021/01/29 02:54:40;;;;;;;47.70;18.70;;;0.10;99.90;;;;;;4357597;28;659699;-62
2021/01/29 02:57:31;;;;;;;36.50;14.43;;;-0.10;99.90;;;;;;4363729;28;661090;-64
2021/01/29 03:00:22;;;;;;;47.97;18.37;;;-0.10;99.90;;;;;;4352395;28;660636;-64
2021/01/29 03:03:11;;;;;;;30.97;9.93;;;-0.30;99.90;;;;;;4334242;28;661322;-62
2021/01/29 03:06:00;;;;;;;43.47;16.73;;;-0.30;99.90;;;;;;4380869;28;660096;-64
2021/01/29 03:08:53;;;;;;;49.70;17.98;;;-0.30;99.90;;;;;;4365865;28;661422;-64
2021/01/29 03:11:42;;;;;;;41.23;16.40;;;-0.20;99.90;;;;;;4344765;28;660520;-64
2021/01/29 03:14:32;;;;;;;43.10;17.77;;;-0.30;99.90;;;;;;4354024;28;660663;-62
2021/01/29 03:17:21;;;;;;;43.83;16.73;;;-0.40;99.90;;;;;;4365369;28;660529;-64
2021/01/29 03:20:10;;;;;;;44.50;17.70;;;-0.60;99.90;;;;;;4379045;28;660446;-64
2021/01/29 03:22:59;;;;;;;41.43;17.07;;;-0.50;99.90;;;;;;4351572;28;661403;-64
2021/01/29 03:25:48;;;;;;;27.23;10.43;;;-0.60;99.90;;;;;;4366827;28;662112;-64
2021/01/29 03:28:36;;;;;;;40.20;15.50;;;-0.60;99.90;;;;;;4345494;28;660761;-63
2021/01/29 03:31:24;;;;;;;36.10;14.00;;;-0.60;99.90;;;;;;4360925;28;660597;-64
2021/01/29 03:34:13;;;;;;;32.10;12.70;;;-0.60;99.90;;;;;;4345296;28;661778;-63
2021/01/29 03:37:03;;;;;;;21.17;8.33;;;-0.60;99.90;;;;;;4344596;28;661506;-64
2021/01/29 03:39:50;;;;;;;34.03;13.27;;;-0.80;99.90;;;;;;4338882;28;660541;-64
2021/01/29 03:42:44;;;;;;;29.33;12.73;;;-0.80;99.90;;;;;;4361347;28;661368;-64
2021/01/29 03:45:39;;;;;;;22.33;9.27;;;-0.90;99.90;;;;;;4313028;28;661773;-63
2021/01/29 03:48:28;;;;;;;25.53;10.33;;;-0.90;99.90;;;;;;4323119;28;659661;-64
2021/01/29 03:51:18;;;;;;;20.13;9.02;;;-1.00;99.90;;;;;;4341382;28;660636;-63
2021/01/29 03:54:07;;;;;;;14.40;5.67;;;-1.20;99.90;;;;;;4346703;28;659924;-63
2021/01/29 03:57:00;;;;;;;14.57;6.28;;;-1.20;99.90;;;;;;4342022;28;659736;-62
2021/01/29 03:59:55;;;;;;;19.33;8.13;;;-1.10;99.90;;;;;;4349129;28;661032;-64
2021/01/29 04:02:55;;;;;;;14.27;6.27;;;-1.20;99.90;;;;;;4336269;28;660305;-63
2021/01/29 04:05:47;;;;;;;16.10;6.57;;;-1.10;99.90;;;;;;4336042;28;660544;-63
2021/01/29 04:08:40;;;;;;;15.90;7.23;;;-1.30;99.90;;;;;;4328555;28;660641;-61
2021/01/29 04:11:32;;;;;;;14.73;7.10;;;-1.40;99.90;;;;;;4338556;28;660763;-64
2021/01/29 04:14:23;;;;;;;14.80;6.40;;;-1.50;99.90;;;;;;4316655;28;660665;-62
2021/01/29 04:17:13;;;;;;;17.87;7.37;;;-1.50;99.90;;;;;;4351878;28;659943;-63
2021/01/29 04:20:04;;;;;;;14.30;6.00;;;-1.50;99.90;;;;;;4361367;28;660051;-63
2021/01/29 04:22:53;;;;;;;14.82;7.07;;;-1.60;99.90;;;;;;4338807;28;660815;-63
2021/01/29 04:25:42;;;;;;;23.07;8.47;;;-1.60;99.90;;;;;;4340571;28;659863;-63
2021/01/29 04:28:31;;;;;;;15.97;7.03;;;-1.60;99.90;;;;;;4359827;28;659585;-62
2021/01/29 04:31:18;;;;;;;16.85;7.72;;;-1.80;99.90;;;;;;4378203;28;660243;-62
2021/01/29 04:34:07;;;;;;;21.17;7.80;;;-1.60;99.90;;;;;;4360619;28;659660;-63
2021/01/29 04:36:55;;;;;;;16.73;7.73;;;-1.70;99.90;;;;;;4375968;28;660084;-62
2021/01/29 04:39:44;;;;;;;17.17;8.03;;;-1.80;99.90;;;;;;4383165;28;660191;-63
2021/01/29 04:42:42;;;;;;;20.60;7.70;;;-1.90;99.90;;;;;;4338120;28;660517;-63
2021/01/29 04:45:40;;;;;;;20.00;7.30;;;-1.90;99.90;;;;;;4343817;28;660431;-60
2021/01/29 04:48:28;;;;;;;10.10;4.60;;;-2.10;99.90;;;;;;4348627;28;660236;-63
2021/01/29 04:51:41;;;;;;;14.63;5.77;;;-1.90;99.90;;;;;;4355781;28;659657;-63
2021/01/29 04:54:46;;;;;;;21.53;8.63;;;-1.80;99.90;;;;;;4342972;28;660302;-63
2021/01/29 04:57:51;;;;;;;19.23;8.10;;;-2.00;99.90;;;;;;4357221;28;659741;-62
2021/01/29 05:01:07;;;;;;;18.40;7.80;;;-2.20;99.90;;;;;;4339641;28;660425;-63
2021/01/29 05:04:13;;;;;;;18.97;7.40;;;-2.30;99.90;;;;;;4332149;28;660635;-60
2021/01/29 05:07:44;;;;;;;17.03;7.10;;;-2.40;99.90;;;;;;4316391;28;660852;-63
2021/01/29 05:11:07;;;;;;;15.83;5.93;;;-2.50;99.90;;;;;;4285259;28;660202;-63
2021/01/29 05:14:26;;;;;;;13.53;5.63;;;-2.40;99.90;;;;;;4307753;28;659840;-62
2021/01/29 05:17:43;;;;;;;14.20;6.40;;;-2.50;99.90;;;;;;4304854;28;659800;-63
2021/01/29 05:20:44;;;;;;;15.77;6.37;;;-2.50;99.90;;;;;;4321782;28;660829;-63
2021/01/29 05:23:56;;;;;;;12.70;5.13;;;-2.60;99.90;;;;;;4331509;28;661432;-63
2021/01/29 05:27:03;;;;;;;15.90;5.77;;;-2.60;99.90;;;;;;4338451;28;659881;-63
2021/01/29 05:29:56;;;;;;;15.83;6.43;;;-2.80;99.90;;;;;;4330002;28;660318;-63
2021/01/29 05:33:02;;;;;;;14.67;5.97;;;-2.90;99.90;;;;;;4339627;28;659659;-63
2021/01/29 05:36:20;;;;;;;18.77;6.23;;;-3.00;99.90;;;;;;4333943;28;660345;-61
2021/01/29 05:39:21;;;;;;;15.90;6.00;;;-3.00;99.90;;;;;;4356249;28;660919;-63
2021/01/29 05:42:31;;;;;;;13.80;6.33;;;-3.10;99.90;;;;;;4356455;28;659470;-63
2021/01/29 05:45:29;;;;;;;18.10;7.30;;;-3.30;99.90;;;;;;4350507;28;660220;-62
2021/01/29 05:48:50;;;;;;;20.10;7.40;;;-3.50;99.90;;;;;;4337239;28;661089;-63
2021/01/29 05:51:51;;;;;;;19.07;7.73;;;-3.60;99.90;;;;;;4353629;28;660457;-63
2021/01/29 05:54:48;;;;;;;18.87;7.27;;;-3.70;99.90;;;;;;4355605;28;659795;-63
2021/01/29 05:58:11;;;;;;;21.10;8.43;;;-3.60;99.90;;;;;;4315043;28;660877;-63
2021/01/29 06:01:28;;;;;;;21.20;8.10;;;-3.80;99.90;;;;;;4355870;28;659951;-63
2021/01/29 06:04:48;;;;;;;22.80;8.15;;;-4.00;99.90;;;;;;4323405;28;660339;-63
2021/01/29 06:08:08;;;;;;;18.15;8.00;;;-4.10;99.90;;;;;;4311284;28;661137;-63
2021/01/29 06:11:30;;;;;;;21.00;8.67;;;-4.20;99.90;;;;;;4291334;28;660316;-63
2021/01/29 06:14:53;;;;;;;24.03;7.63;;;-4.40;99.90;;;;;;4343722;28;661160;-63
2021/01/29 06:18:06;;;;;;;22.83;8.83;;;-4.30;99.90;;;;;;4338787;28;659515;-63
2021/01/29 06:21:14;;;;;;;22.40;8.23;;;-4.40;99.90;;;;;;4345843;28;659736;-63
2021/01/29 06:24:37;;;;;;;25.87;8.40;;;-4.40;99.90;;;;;;4325720;28;660905;-63
2021/01/29 06:27:55;;;;;;;17.07;7.57;;;-4.40;99.90;;;;;;4334917;28;660700;-62
2021/01/29 06:30:50;;;;;;;18.90;7.87;;;-4.30;99.90;;;;;;4345572;28;660415;-63
2021/01/29 06:34:06;;;;;;;22.77;8.40;;;-4.10;99.90;;;;;;4360586;28;660462;-63
2021/01/29 06:37:01;;;;;;;7.33;2.73;;;-4.00;99.90;;;;;;4349897;28;660348;-63
2021/01/29 06:40:04;;;;;;;11.43;5.07;;;-3.90;99.90;;;;;;4353418;28;658700;-70
2021/01/29 06:43:21;;;;;;;18.90;7.77;;;-3.80;99.90;;;;;;4330692;28;660237;-70
2021/01/29 06:46:28;;;;;;;16.50;7.80;;;-3.80;99.90;;;;;;4353600;28;659753;-65
2021/01/29 06:49:50;;;;;;;23.37;8.73;;;-3.80;99.90;;;;;;4340088;28;661120;-69
2021/01/29 06:53:17;;;;;;;18.67;8.90;;;-3.70;99.90;;;;;;4341116;28;659749;-70
2021/01/29 06:56:33;;;;;;;22.23;8.70;;;-3.60;99.90;;;;;;4250291;29;660235;-66
2021/01/29 06:59:34;;;;;;;26.03;9.53;;;-3.50;99.90;;;;;;4268923;29;659577;-69
2021/01/29 07:02:30;;;;;;;25.77;8.83;;;-3.30;99.90;;;;;;4252905;29;661299;-69
2021/01/29 07:05:27;;;;;;;26.57;10.03;;;-3.30;99.90;;;;;;4277323;29;660404;-69
2021/01/29 07:08:21;;;;;;;15.90;6.53;;;-3.20;99.90;;;;;;4265952;29;660719;-66
2021/01/29 07:11:25;;;;;;;21.52;7.60;;;-3.10;99.90;;;;;;4270497;29;659748;-66
2021/01/29 07:14:32;;;;;;;24.70;10.07;;;-2.70;99.90;;;;;;4284136;29;660228;-69
2021/01/29 07:17:20;;;;;;;25.17;10.50;;;-2.70;99.90;;;;;;4269817;29;660964;-67
2021/01/29 07:20:17;;;;;;;27.97;11.27;;;-2.80;99.90;;;;;;4305220;29;661534;-69
2021/01/29 07:23:35;;;;;;;30.57;10.77;;;-2.70;99.90;;;;;;4253192;29;660808;-69
2021/01/29 07:26:30;;;;;;;26.77;9.80;;;-2.70;99.90;;;;;;4269298;29;660801;-69
2021/01/29 07:29:40;;;;;;;20.45;7.75;;;-2.40;99.90;;;;;;4299068;28;659349;-69
2021/01/29 07:32:31;;;;;;;25.88;11.00;;;-2.10;99.90;;;;;;4347465;28;659811;-69
2021/01/29 07:35:22;;;;;;;19.10;6.23;;;-2.00;99.90;;;;;;4336943;28;660893;-69
2021/01/29 07:38:32;;;;;;;24.33;9.30;;;-1.90;99.90;;;;;;4322413;28;659599;-68
2021/01/29 07:41:28;;;;;;;35.90;13.53;;;-1.60;99.90;;;;;;4320300;28;659599;-66
2021/01/29 07:44:30;;;;;;;32.60;12.23;;;-1.50;99.90;;;;;;4348454;28;660802;-69
2021/01/29 07:47:26;;;;;;;36.30;14.00;;;-1.50;99.90;;;;;;4339348;28;660564;-69
2021/01/29 07:50:20;;;;;;;46.77;14.37;;;-1.50;99.90;;;;;;4335850;28;661043;-69
2021/01/29 07:53:08;;;;;;;44.80;17.50;;;-1.20;99.90;;;;;;4347295;28;660983;-69
2021/01/29 07:56:13;;;;;;;37.17;12.97;;;-1.20;99.90;;;;;;4342848;28;661042;-69
2021/01/29 07:59:09;;;;;;;49.50;17.87;;;-1.00;99.90;;;;;;4318210;28;661643;-69
2021/01/29 08:02:00;;;;;;;45.00;16.20;;;-1.00;99.90;;;;;;4316521;28;661435;-69
2021/01/29 08:04:51;;;;;;;50.17;17.47;;;-0.80;99.90;;;;;;4343727;28;662137;-68
2021/01/29 08:07:39;;;;;;;46.13;17.13;;;-0.70;99.90;;;;;;4345613;28;660642;-69
2021/01/29 08:10:30;;;;;;;45.83;16.20;;;-0.60;99.90;;;;;;4345596;28;662244;-69
2021/01/29 08:13:21;;;;;;;45.47;14.87;;;-0.50;99.90;;;;;;4336259;28;661319;-69
2021/01/29 08:16:27;;;;;;;21.10;5.27;;;-0.40;99.90;;;;;;4365301;28;660246;-69
2021/01/29 08:19:15;;;;;;;42.00;15.43;;;0.10;99.90;;;;;;4344485;28;659454;-66
2021/01/29 08:22:38;;;;;;;29.30;11.57;;;0.60;99.90;;;;;;4361174;28;660335;-69
2021/01/29 08:25:51;;;;;;;10.13;4.40;;;0.90;99.90;;;;;;4327519;28;659807;-68
2021/01/29 08:29:11;;;;;;;30.48;12.90;;;0.80;99.90;;;;;;4340693;28;658498;-68
2021/01/29 08:32:32;;;;;;;27.30;10.33;;;0.80;99.90;;;;;;4328043;28;660436;-68
2021/01/29 08:35:31;;;;;;;34.03;12.67;;;0.70;99.90;;;;;;4323862;28;659758;-66
2021/01/29 08:38:20;;;;;;;35.60;13.07;;;0.70;99.90;;;;;;4345292;28;659542;-69
2021/01/29 08:41:12;;;;;;;20.87;8.50;;;0.80;99.90;;;;;;4341322;28;660306;-69
2021/01/29 08:44:09;;;;;;;22.93;10.63;;;0.70;99.50;;;;;;4319405;28;658934;-68
2021/01/29 08:47:14;;;;;;;20.97;7.17;;;0.40;99.90;;;;;;4316189;28;660746;-68
2021/01/29 08:50:08;;;;;;;26.97;8.80;;;0.30;99.90;;;;;;4317345;28;659293;-69
2021/01/29 08:53:31;;;;;;;14.50;7.27;;;0.50;99.90;;;;;;4303956;28;659410;-68
2021/01/29 08:56:21;;;;;;;27.30;10.43;;;0.40;99.90;;;;;;4344901;28;658622;-68
2021/01/29 08:59:09;;;;;;;21.20;6.57;;;0.40;99.90;;;;;;4344411;28;659587;-68
2021/01/29 09:01:59;;;;;;;39.83;14.50;;;0.90;99.70;;;;;;4343953;28;659967;-68
2021/01/29 09:04:50;;;;;;;21.20;8.33;;;1.30;99.90;;;;;;4330340;28;661447;-68
2021/01/29 09:07:39;;;;;;;24.43;6.20;;;1.60;91.70;;;;;;4323614;28;659246;-68
2021/01/29 09:10:37;;;;;;;28.63;12.35;;;1.60;91.40;;;;;;4358927;28;659789;-68
2021/01/29 09:13:24;;;;;;;12.63;6.13;;;1.40;92.10;;;;;;4335106;28;659709;-68
2021/01/29 09:16:17;;;;;;;19.83;7.97;;;1.70;90.10;;;;;;4361430;28;660458;-68
2021/01/29 09:19:06;;;;;;;34.43;13.27;;;1.80;88.60;;;;;;4337437;28;658991;-66
2021/01/29 09:21:58;;;;;;;38.27;14.53;;;1.50;90.50;;;;;;4366009;28;659669;-68
2021/01/29 09:24:48;;;;;;;39.37;13.57;;;1.30;88.30;;;;;;4330385;28;661682;-67
2021/01/29 09:27:48;;;;;;;16.60;6.13;;;1.30;90.80;;;;;;4356772;28;660341;-67
2021/01/29 09:30:37;;;;;;;7.97;3.20;;;1.40;90.30;;;;;;4342832;28;658710;-68
2021/01/29 09:33:27;;;;;;;21.93;8.20;;;2.00;89.00;;;;;;4368905;28;657570;-66
2021/01/29 09:36:15;;;;;;;31.20;8.57;;;2.50;83.60;;;;;;4349483;28;658595;-67
2021/01/29 09:39:08;;;;;;;22.70;9.40;;;2.60;80.90;;;;;;4371856;28;659474;-68
2021/01/29 09:41:58;;;;;;;49.55;15.63;;;2.70;77.80;;;;;;4315948;28;659269;-68
2021/01/29 09:44:47;;;;;;;64.67;18.87;;;2.20;79.30;;;;;;4333210;28;660470;-68
2021/01/29 09:47:39;;;;;;;68.00;20.13;;;2.00;81.20;;;;;;4331406;28;659675;-66
2021/01/29 09:50:26;;;;;;;38.97;13.97;;;1.80;84.20;;;;;;4352990;28;660328;-68
2021/01/29 09:53:21;;;;;;;34.43;12.97;;;1.70;80.90;;;;;;4359801;28;659246;-68
2021/01/29 09:56:13;;;;;;;25.70;9.00;;;1.50;82.40;;;;;;4339276;28;660717;-68
2021/01/29 09:59:20;;;;;;;34.23;12.50;;;1.50;82.90;;;;;;4334082;28;659351;-68
2021/01/29 10:02:13;;;;;;;21.95;7.20;;;1.80;82.70;;;;;;4335565;28;660004;-68
2021/01/29 10:05:25;;;;;;;24.13;8.63;;;2.20;79.00;;;;;;4321824;28;659231;-67
2021/01/29 10:08:16;;;;;;;28.37;7.70;;;2.80;76.90;;;;;;4337686;28;659036;-67
2021/01/29 10:11:04;;;;;;;15.20;7.13;;;2.80;76.10;;;;;;4343817;28;658680;-68
2021/01/29 10:14:02;;;;;;;28.30;12.43;;;2.90;75.60;;;;;;4351274;28;659570;-68
2021/01/29 10:16:54;;;;;;;8.90;4.07;;;2.90;74.80;;;;;;4317687;28;660534;-66
2021/01/29 10:19:42;;;;;;;14.40;4.83;;;3.20;74.30;;;;;;4343833;28;658328;-68
2021/01/29 10:22:42;;;;;;;19.05;7.47;;;2.60;76.60;;;;;;4347604;28;659065;-67
2021/01/29 10:25:35;;;;;;;29.20;10.53;;;3.10;75.80;;;;;;4327269;28;659033;-67
2021/01/29 10:28:29;;;;;;;31.87;11.67;;;3.50;71.10;;;;;;4336715;28;660087;-68
2021/01/29 10:31:15;;;;;;;17.37;6.30;;;4.50;68.40;;;;;;4368678;28;660604;-68
2021/01/29 10:34:37;;;;;;;12.03;4.83;;;4.90;66.10;;;;;;4361709;28;660294;-68
2021/01/29 10:37:30;;;;;;;14.47;6.27;;;4.30;65.50;;;;;;4321453;28;658825;-65
2021/01/29 10:40:22;;;;;;;24.20;10.80;;;4.30;65.70;;;;;;4342958;28;659202;-68
2021/01/29 10:43:15;;;;;;;8.10;3.83;;;4.20;66.30;;;;;;4337966;28;659897;-65
2021/01/29 10:46:27;;;;;;;22.30;9.23;;;3.50;66.60;;;;;;4352321;28;658027;-68
2021/01/29 10:49:20;;;;;;;23.67;11.00;;;3.40;68.10;;;;;;4323835;28;658557;-68
2021/01/29 10:52:12;;;;;;;14.17;5.27;;;4.90;64.80;;;;;;4348352;28;660093;-68
2021/01/29 10:54:59;;;;;;;26.93;11.53;;;6.40;60.60;;;;;;4373557;28;658708;-66
2021/01/29 10:57:50;;;;;;;24.90;8.37;;;6.20;60.10;;;;;;4383600;28;660215;-68
2021/01/29 11:00:37;;;;;;;25.27;10.80;;;5.90;57.80;;;;;;4354775;28;659242;-68
2021/01/29 11:03:50;;;;;;;18.63;8.27;;;5.50;58.80;;;;;;4371202;28;659648;-65
2021/01/29 11:06:42;;;;;;;25.17;10.33;;;5.10;60.60;;;;;;4364511;28;659661;-69
2021/01/29 11:09:31;;;;;;;23.03;10.10;;;5.10;61.30;;;;;;4365304;28;659653;-67
2021/01/29 11:12:21;;;;;;;24.20;9.53;;;5.00;58.70;;;;;;4358560;28;659744;-68
2021/01/29 11:15:18;;;;;;;19.87;6.87;;;4.40;59.00;;;;;;4343904;28;659460;-68
2021/01/29 11:18:11;;;;;;;25.37;10.97;;;4.40;59.60;;;;;;4349413;28;658720;-68
2021/01/29 11:21:01;;;;;;;29.03;10.97;;;4.50;60.00;;;;;;4341836;28;659414;-68
2021/01/29 11:24:04;;;;;;;29.13;9.97;;;4.70;60.00;;;;;;4343623;28;659567;-68
2021/01/29 11:26:55;;;;;;;12.03;5.47;;;4.60;58.60;;;;;;4325443;28;660035;-68
2021/01/29 11:29:44;;;;;;;18.63;6.63;;;4.00;59.50;;;;;;4343398;28;659005;-67
2021/01/29 11:32:33;;;;;;;16.13;6.87;;;3.70;62.40;;;;;;4360313;28;660414;-68
2021/01/29 11:35:26;;;;;;;37.37;12.80;;;3.80;62.90;;;;;;4344671;28;658694;-68
2021/01/29 11:38:20;;;;;;;26.97;11.67;;;3.80;61.50;;;;;;4341748;28;659591;-68
2021/01/29 11:41:19;;;;;;;23.97;9.40;;;4.10;60.90;;;;;;4344112;28;661152;-68
2021/01/29 11:44:11;;;;;;;13.10;5.93;;;4.40;58.70;;;;;;4357743;28;658639;-68
2021/01/29 11:47:01;;;;;;;27.13;11.17;;;4.20;59.10;;;;;;4347504;28;659620;-68
2021/01/29 11:49:53;;;;;;;30.97;12.97;;;4.20;59.60;;;;;;4346275;28;659759;-68
2021/01/29 11:52:41;;;;;;;32.03;13.60;;;4.50;59.10;;;;;;4328733;28;660062;-65
2021/01/29 11:55:30;;;;;;;29.67;13.60;;;5.10;59.00;;;;;;4373638;28;659768;-68
2021/01/29 11:58:21;;;;;;;19.90;8.40;;;5.80;57.50;;;;;;4337223;28;661049;-67
2021/01/29 12:01:11;;;;;;;34.10;14.53;;;6.50;54.20;;;;;;4353526;28;658915;-68
2021/01/29 12:04:03;;;;;;;34.93;14.00;;;6.80;53.50;;;;;;4350410;28;659947;-68
2021/01/29 12:06:52;;;;;;;33.47;14.07;;;7.30;53.10;;;;;;4349299;28;659871;-67
2021/01/29 12:09:45;;;;;;;30.80;13.03;;;7.60;50.70;;;;;;4366229;28;660192;-67
2021/01/29 12:12:38;;;;;;;34.47;14.57;;;8.00;49.90;;;;;;4351712;28;661239;-68
2021/01/29 12:15:28;;;;;;;28.23;13.23;;;7.50;50.30;;;;;;4319312;28;660726;-67
2021/01/29 12:18:15;;;;;;;24.67;12.37;;;6.90;52.30;;;;;;4357294;28;659564;-68
2021/01/29 12:21:10;;;;;;;31.53;14.47;;;6.40;53.40;;;;;;4361442;28;659523;-68
2021/01/29 12:24:02;;;;;;;35.57;16.03;;;6.00;54.20;;;;;;4340418;28;660550;-67
2021/01/29 12:26:56;;;;;;;31.90;14.03;;;5.90;56.10;;;;;;4315108;28;661662;-66
2021/01/29 12:29:47;;;;;;;30.33;13.57;;;6.00;53.30;;;;;;4347303;28;660867;-67
2021/01/29 12:32:51;;;;;;;30.50;13.33;;;5.90;52.30;;;;;;4334096;28;661278;-65
2021/01/29 12:35:44;;;;;;;31.63;13.03;;;5.60;53.20;;;;;;4337459;28;659696;-68
2021/01/29 12:38:38;;;;;;;32.00;14.67;;;5.60;51.80;;;;;;4325309;28;660631;-68
2021/01/29 12:41:33;;;;;;;35.67;16.20;;;5.20;53.80;;;;;;4343519;28;659685;-68
2021/01/29 12:44:38;;;;;;;38.38;16.20;;;4.90;56.10;;;;;;4324720;28;660244;-68
2021/01/29 12:47:37;;;;;;;40.13;16.60;;;4.60;55.60;;;;;;4355128;28;660035;-68
2021/01/29 12:50:44;;;;;;;41.77;18.40;;;4.00;57.40;;;;;;4322790;28;660310;-66
2021/01/29 12:53:36;;;;;;;42.10;17.83;;;3.70;59.40;;;;;;4319520;28;660067;-68
2021/01/29 12:56:54;;;;;;;41.20;17.93;;;3.60;62.20;;;;;;4340094;28;659885;-67
2021/01/29 12:59:45;;;;;;;44.57;17.93;;;3.20;62.20;;;;;;4341028;28;659662;-67
2021/01/29 13:02:53;;;;;;;45.40;18.23;;;3.00;61.70;;;;;;4340458;28;660904;-68
2021/01/29 13:05:49;;;;;;;43.17;18.70;;;3.20;62.00;;;;;;4341472;28;659709;-67
2021/01/29 13:08:46;;;;;;;46.00;19.23;;;2.90;62.90;;;;;;4326057;28;661662;-67
2021/01/29 13:11:37;;;;;;;50.20;20.10;;;2.80;64.40;;;;;;4338313;28;660518;-68
2021/01/29 13:14:27;;;;;;;50.63;20.38;;;2.60;65.80;;;;;;4322069;28;660147;-67
2021/01/29 13:17:25;;;;;;;61.43;25.37;;;2.70;65.80;;;;;;4340989;28;659710;-67
2021/01/29 13:20:13;;;;;;;60.50;24.13;;;2.60;68.10;;;;;;4337119;28;660155;-67
2021/01/29 13:23:17;;;;;;;74.33;29.77;;;2.90;68.80;;;;;;4345850;28;659709;-68
2021/01/29 13:26:05;;;;;;;53.73;22.43;;;3.10;68.70;;;;;;4332501;28;659604;-65
2021/01/29 13:28:58;;;;;;;53.80;22.20;;;3.60;66.70;;;;;;4356819;28;660748;-68
2021/01/29 13:31:45;;;;;;;57.77;23.90;;;3.80;65.70;;;;;;4308876;28;660555;-68
2021/01/29 13:34:32;;;;;;;50.37;20.60;;;4.10;64.90;;;;;;4345883;28;660689;-68
2021/01/29 13:37:22;;;;;;;57.47;22.90;;;4.20;62.10;;;;;;4345836;28;661243;-66
2021/01/29 13:40:14;;;;;;;65.53;25.63;;;4.00;61.20;;;;;;4340424;28;660897;-67
2021/01/29 13:43:10;;;;;;;69.37;26.17;;;4.20;62.80;;;;;;4323397;28;661274;-68
2021/01/29 13:45:58;;;;;;;61.47;25.23;;;4.30;63.00;;;;;;4333182;28;660437;-68
2021/01/29 13:48:45;;;;;;;61.90;24.93;;;4.10;61.40;;;;;;4327930;28;659556;-67
2021/01/29 13:51:33;;;;;;;66.68;25.42;;;3.60;62.00;;;;;;4359109;28;660469;-68
2021/01/29 13:54:32;;;;;;;90.67;34.60;;;3.10;64.30;;;;;;4344891;28;660077;-68
2021/01/29 13:57:26;;;;;;;90.03;32.77;;;2.80;65.20;;;;;;4316271;28;659619;-68
2021/01/29 14:00:15;;;;;;;103.03;39.07;;;2.40;65.80;;;;;;4323650;28;660390;-68
2021/01/29 14:03:05;;;;;;;89.50;32.23;;;2.20;67.90;;;;;;4324083;28;661919;-67
2021/01/29 14:05:52;;;;;;;84.77;30.40;;;2.10;69.70;;;;;;4322024;28;660596;-67
2021/01/29 14:08:40;;;;;;;85.77;29.40;;;1.90;68.90;;;;;;4333659;28;661249;-68
2021/01/29 14:11:29;;;;;;;75.17;27.30;;;1.70;70.30;;;;;;4358539;28;661516;-67
2021/01/29 14:14:21;;;;;;;67.68;24.58;;;1.60;72.40;;;;;;4349347;28;661069;-67
2021/01/29 14:17:13;;;;;;;71.90;27.00;;;1.50;73.40;;;;;;4334682;28;660035;-67
2021/01/29 14:20:06;;;;;;;70.70;27.43;;;1.50;74.20;;;;;;4317424;28;659365;-67
2021/01/29 14:23:05;;;;;;;69.70;28.90;;;1.40;74.70;;;;;;4327778;28;659583;-67
2021/01/29 14:26:01;;;;;;;169.67;54.83;;;1.40;76.00;;;;;;4346809;28;660471;-67
2021/01/29 14:28:52;;;;;;;275.50;59.07;;;1.30;77.70;;;;;;4335104;28;662279;-67
2021/01/29 14:31:45;;;;;;;87.87;31.50;;;1.10;79.40;;;;;;4335636;28;661020;-66
2021/01/29 14:34:42;;;;;;;84.10;32.80;;;1.00;83.70;;;;;;4349870;28;660251;-68
2021/01/29 14:37:36;;;;;;;80.60;29.60;;;0.80;87.50;;;;;;4350631;28;659827;-66
2021/01/29 14:40:49;;;;;;;78.47;29.63;;;0.60;90.50;;;;;;4332047;28;659570;-67
2021/01/29 14:43:59;;;;;;;146.83;50.03;;;0.40;92.80;;;;;;4346928;28;660021;-66
2021/01/29 14:46:58;;;;;;;113.90;37.40;;;0.20;92.70;;;;;;4314178;28;661473;-67
2021/01/29 14:50:07;;;;;;;115.40;38.07;;;0.00;94.90;;;;;;4315862;28;662386;-67
2021/01/29 14:53:05;;;;;;;169.10;58.00;;;0.00;95.50;;;;;;4323925;28;660812;-67
2021/01/29 14:55:56;;;;;;;130.80;44.03;;;-0.10;97.00;;;;;;4335288;28;661197;-67